Time;durP1;ratioP1;P1;durP2;ratioP2;P2;SDS_P1;SDS_P2;PMS_P1;PMS_P2;Temp;Humidity;BMP_temperature;BMP_pressure;BME280_temperature;BME280_humidity;BME280_pressure;Samples;Min_cycle;Max_cycle;Signal;HPM_P1;HPM_P2
2023/05/10 00:00:24;;;;;;;1.60;1.00;;;24.20;48.30;;;;;;5042912;28;20434;-69
2023/05/10 00:02:49;;;;;;;2.13;1.27;;;24.30;48.40;;;;;;5049099;28;20035;-68
2023/05/10 00:05:15;;;;;;;1.60;1.10;;;24.20;48.40;;;;;;5040532;28;20034;-68
2023/05/10 00:07:44;;;;;;;1.92;1.10;;;24.20;48.40;;;;;;5040702;28;20091;-68
2023/05/10 00:10:10;;;;;;;1.55;0.95;;;24.20;48.40;;;;;;5039133;28;20033;-68
2023/05/10 00:12:36;;;;;;;2.08;1.20;;;24.20;48.30;;;;;;5042345;28;20041;-68
2023/05/10 00:15:02;;;;;;;1.77;1.30;;;24.20;48.40;;;;;;5048571;28;20211;-67
2023/05/10 00:17:28;;;;;;;1.60;1.00;;;24.20;48.40;;;;;;5042278;28;20032;-68
2023/05/10 00:19:54;;;;;;;1.80;1.08;;;24.20;48.40;;;;;;5039849;28;20033;-68
2023/05/10 00:22:20;;;;;;;1.73;1.25;;;24.20;48.40;;;;;;5042697;28;20427;-67
2023/05/10 00:24:46;;;;;;;2.13;1.25;;;24.20;48.50;;;;;;5039895;28;20064;-68
2023/05/10 00:27:11;;;;;;;1.95;1.20;;;24.20;48.40;;;;;;5040127;28;20107;-69
2023/05/10 00:29:37;;;;;;;1.75;1.10;;;24.20;48.50;;;;;;5040460;28;20474;-69
2023/05/10 00:32:02;;;;;;;1.73;1.05;;;24.10;48.40;;;;;;5040109;28;20025;-68
2023/05/10 00:34:28;;;;;;;1.55;1.08;;;24.20;48.40;;;;;;5041551;28;20029;-66
2023/05/10 00:36:54;;;;;;;1.52;1.00;;;24.10;48.40;;;;;;5039715;28;20025;-68
2023/05/10 00:39:19;;;;;;;1.40;0.93;;;24.20;48.50;;;;;;5042296;28;20033;-69
2023/05/10 00:41:45;;;;;;;1.92;1.10;;;24.10;48.40;;;;;;5038866;28;20029;-68
2023/05/10 00:44:11;;;;;;;1.20;0.90;;;24.20;48.40;;;;;;5038600;28;20028;-69
2023/05/10 00:46:36;;;;;;;1.67;1.10;;;24.20;48.50;;;;;;5041141;28;20373;-68
2023/05/10 00:49:02;;;;;;;2.08;1.30;;;24.10;48.40;;;;;;5042205;28;20026;-68
2023/05/10 00:51:28;;;;;;;1.60;1.10;;;24.10;48.50;;;;;;5039568;28;20033;-69
2023/05/10 00:53:55;;;;;;;2.40;1.38;;;24.10;48.40;;;;;;5041273;28;20021;-68
2023/05/10 00:56:22;;;;;;;2.08;1.10;;;24.10;48.50;;;;;;5039086;28;20045;-69
2023/05/10 00:58:48;;;;;;;1.85;1.17;;;24.10;48.50;;;;;;5041674;28;20037;-67
2023/05/10 01:01:14;;;;;;;1.80;1.23;;;24.10;48.50;;;;;;5037209;28;20024;-68
2023/05/10 01:03:40;;;;;;;1.70;1.10;;;24.10;48.50;;;;;;5040511;28;20026;-68
2023/05/10 01:06:06;;;;;;;2.08;1.10;;;24.10;48.50;;;;;;5039617;28;20041;-68
2023/05/10 01:08:32;;;;;;;1.92;1.20;;;24.10;48.50;;;;;;5039574;28;20108;-69
2023/05/10 01:10:58;;;;;;;1.63;1.00;;;24.10;48.50;;;;;;5040861;28;20209;-68
2023/05/10 01:13:47;;;;;;;1.60;1.10;;;24.10;48.50;;;;;;5042583;28;20053;-68
2023/05/10 01:16:13;;;;;;;2.05;1.15;;;24.10;48.50;;;;;;5042883;28;20393;-68
2023/05/10 01:18:40;;;;;;;2.00;1.20;;;24.10;48.50;;;;;;5041602;28;20493;-69
2023/05/10 01:21:46;;;;;;;1.58;1.15;;;24.10;48.50;;;;;;5039804;28;20048;-69
2023/05/10 01:24:44;;;;;;;1.73;1.10;;;24.10;48.60;;;;;;5038043;28;20028;-68
2023/05/10 01:27:17;;;;;;;2.22;1.45;;;24.10;48.60;;;;;;5033574;28;20061;-68
2023/05/10 01:29:57;;;;;;;1.38;1.10;;;24.10;48.60;;;;;;5036512;28;20128;-68
2023/05/10 01:32:34;;;;;;;1.38;1.02;;;24.10;48.60;;;;;;5041255;28;20035;-69
2023/05/10 01:35:37;;;;;;;1.58;1.05;;;24.10;48.60;;;;;;5038301;28;20178;-69
2023/05/10 01:38:30;;;;;;;2.03;1.15;;;24.10;48.60;;;;;;5046240;28;20036;-68
2023/05/10 01:40:59;;;;;;;1.80;1.10;;;24.00;48.60;;;;;;5038928;28;20464;-68
2023/05/10 01:43:31;;;;;;;1.92;1.10;;;24.00;48.60;;;;;;5039424;28;20018;-68
2023/05/10 01:46:10;;;;;;;1.85;1.00;;;24.00;48.60;;;;;;5040396;28;20041;-69
2023/05/10 01:48:40;;;;;;;1.92;1.17;;;24.00;48.60;;;;;;5040176;28;20017;-68
2023/05/10 01:51:06;;;;;;;1.42;1.00;;;24.00;48.60;;;;;;5037328;28;20033;-68
2023/05/10 01:53:37;;;;;;;1.85;1.10;;;24.00;48.60;;;;;;5037472;28;20400;-64
2023/05/10 01:56:03;;;;;;;1.83;1.08;;;24.00;48.70;;;;;;5039094;28;20435;-68
2023/05/10 01:58:33;;;;;;;1.75;1.00;;;24.00;48.70;;;;;;5040387;28;20125;-68
2023/05/10 02:01:03;;;;;;;1.27;1.00;;;24.00;48.70;;;;;;5038780;28;20028;-69
2023/05/10 02:03:30;;;;;;;1.73;1.10;;;24.00;48.70;;;;;;5040979;28;20060;-69
2023/05/10 02:05:57;;;;;;;1.50;0.93;;;24.00;48.70;;;;;;5037359;28;20155;-68
2023/05/10 02:08:24;;;;;;;1.88;1.13;;;24.00;48.70;;;;;;5033593;28;20032;-69
2023/05/10 02:10:52;;;;;;;1.83;1.20;;;24.00;48.70;;;;;;5036552;28;20370;-68
2023/05/10 02:13:19;;;;;;;1.60;1.00;;;24.00;48.70;;;;;;5038972;28;20093;-67
2023/05/10 02:15:48;;;;;;;1.35;1.05;;;23.90;48.60;;;;;;5038657;28;20362;-69
2023/05/10 02:18:15;;;;;;;1.40;1.05;;;23.90;48.60;;;;;;5038868;28;20481;-67
2023/05/10 02:20:42;;;;;;;1.83;1.00;;;23.90;48.60;;;;;;5038255;28;20026;-69
2023/05/10 02:23:09;;;;;;;1.40;1.00;;;23.90;48.70;;;;;;5037351;28;20477;-68
2023/05/10 02:25:35;;;;;;;1.83;1.10;;;23.90;48.70;;;;;;5040660;28;20041;-69
2023/05/10 02:28:03;;;;;;;0.90;0.77;;;23.90;48.70;;;;;;5038290;28;20488;-69
2023/05/10 02:30:32;;;;;;;1.67;1.02;;;23.90;48.70;;;;;;5039498;28;20116;-69
2023/05/10 02:32:58;;;;;;;1.40;0.90;;;23.90;48.70;;;;;;5040077;28;20465;-69
2023/05/10 02:35:26;;;;;;;1.40;1.10;;;23.90;48.70;;;;;;5037593;28;20020;-68
2023/05/10 02:37:53;;;;;;;1.48;1.00;;;23.90;48.70;;;;;;5039194;28;20104;-68
2023/05/10 02:40:21;;;;;;;1.50;1.02;;;23.90;48.70;;;;;;5040456;28;20601;-68
2023/05/10 02:42:48;;;;;;;1.83;1.23;;;23.90;48.80;;;;;;5040248;28;20083;-69
2023/05/10 02:45:19;;;;;;;1.35;0.98;;;23.90;48.70;;;;;;5037902;28;20497;-69
2023/05/10 02:47:44;;;;;;;1.48;0.90;;;23.90;48.80;;;;;;5037872;28;20453;-69
2023/05/10 02:50:10;;;;;;;1.40;1.05;;;23.90;48.80;;;;;;5037534;28;20017;-69
2023/05/10 02:52:43;;;;;;;1.55;0.98;;;23.90;48.80;;;;;;5036081;28;20033;-68
2023/05/10 02:55:11;;;;;;;1.33;1.00;;;23.90;48.80;;;;;;5038556;28;20063;-68
2023/05/10 02:57:43;;;;;;;2.28;1.20;;;23.90;48.80;;;;;;5037641;28;20124;-68
2023/05/10 03:00:09;;;;;;;1.25;0.90;;;23.90;48.80;;;;;;5038604;28;20040;-69
2023/05/10 03:02:36;;;;;;;1.55;1.05;;;23.90;48.80;;;;;;5038145;28;20029;-69
2023/05/10 03:05:02;;;;;;;1.58;1.08;;;23.90;48.80;;;;;;5040011;28;20806;-68
2023/05/10 03:07:28;;;;;;;1.60;1.20;;;23.90;48.80;;;;;;5037689;28;20032;-68
2023/05/10 03:09:54;;;;;;;1.35;0.90;;;23.80;48.80;;;;;;5037766;28;20119;-69
2023/05/10 03:12:39;;;;;;;1.67;1.05;;;23.80;48.80;;;;;;5036826;28;20036;-68
2023/05/10 03:15:42;;;;;;;1.70;0.80;;;23.90;48.90;;;;;;5038119;28;20052;-69
2023/05/10 03:18:11;;;;;;;1.90;1.00;;;23.90;48.90;;;;;;5039404;28;20052;-68
2023/05/10 03:20:42;;;;;;;2.08;1.27;;;23.80;48.80;;;;;;5036537;28;20036;-69
2023/05/10 03:23:20;;;;;;;1.67;1.10;;;23.80;48.90;;;;;;5037843;28;20025;-68
2023/05/10 03:25:48;;;;;;;1.60;0.90;;;23.80;48.80;;;;;;5038010;28;20179;-68
2023/05/10 03:28:16;;;;;;;1.30;0.90;;;23.80;48.90;;;;;;5036675;28;20113;-69
2023/05/10 03:30:43;;;;;;;1.48;1.00;;;23.80;48.90;;;;;;5040904;28;20122;-68
2023/05/10 03:33:09;;;;;;;1.45;0.98;;;23.80;48.90;;;;;;5039033;28;20469;-68
2023/05/10 03:35:35;;;;;;;1.02;0.82;;;23.80;48.90;;;;;;5038082;28;20028;-68
2023/05/10 03:38:01;;;;;;;1.40;0.90;;;23.80;48.90;;;;;;5035600;28;20026;-68
2023/05/10 03:40:28;;;;;;;1.33;0.90;;;23.80;48.90;;;;;;5037705;28;20053;-68
2023/05/10 03:42:55;;;;;;;1.23;0.80;;;23.80;49.20;;;;;;5036611;28;20044;-68
2023/05/10 03:45:20;;;;;;;1.45;0.90;;;23.80;48.90;;;;;;5039551;28;20067;-69
2023/05/10 03:47:46;;;;;;;1.92;1.15;;;23.80;48.90;;;;;;5038500;28;20036;-68
2023/05/10 03:50:12;;;;;;;1.50;1.10;;;23.80;48.90;;;;;;5037374;28;20025;-68
2023/05/10 03:52:38;;;;;;;1.30;0.80;;;23.80;49.00;;;;;;5037982;28;20025;-68
2023/05/10 03:55:05;;;;;;;1.45;0.90;;;23.80;48.90;;;;;;5034559;28;20203;-68
2023/05/10 03:57:30;;;;;;;1.33;0.90;;;23.80;48.90;;;;;;5039410;28;20033;-68
2023/05/10 03:59:56;;;;;;;1.42;0.90;;;23.80;49.00;;;;;;5040029;28;20037;-68
2023/05/10 04:02:22;;;;;;;1.00;0.90;;;23.80;49.00;;;;;;5036848;28;20037;-67
2023/05/10 04:04:48;;;;;;;1.17;0.90;;;23.70;48.90;;;;;;5036352;28;20080;-68
2023/05/10 04:07:14;;;;;;;1.35;0.90;;;23.70;48.90;;;;;;5037308;28;20029;-68
2023/05/10 04:09:39;;;;;;;1.20;0.80;;;23.70;48.90;;;;;;5050517;28;20369;-69
2023/05/10 04:12:05;;;;;;;1.25;0.90;;;23.70;48.90;;;;;;5034380;28;20437;-68
2023/05/10 04:14:31;;;;;;;0.85;0.73;;;23.70;49.50;;;;;;5034965;28;20040;-67
2023/05/10 04:16:56;;;;;;;1.20;0.90;;;23.70;48.90;;;;;;5036883;28;20029;-67
2023/05/10 04:19:22;;;;;;;1.55;0.90;;;23.70;48.90;;;;;;5037348;28;20172;-68
2023/05/10 04:21:48;;;;;;;1.35;0.88;;;23.70;48.90;;;;;;5038039;28;20415;-68
2023/05/10 04:24:13;;;;;;;1.23;1.00;;;23.70;48.90;;;;;;5036553;28;20052;-66
2023/05/10 04:26:39;;;;;;;1.05;0.70;;;23.70;49.00;;;;;;5033608;28;20089;-67
2023/05/10 04:29:04;;;;;;;0.82;0.77;;;23.70;48.90;;;;;;5033534;28;20088;-66
2023/05/10 04:31:30;;;;;;;1.33;0.90;;;23.70;48.90;;;;;;5037887;28;20100;-66
2023/05/10 04:33:56;;;;;;;1.30;0.90;;;23.70;48.90;;;;;;5040786;28;20030;-66
2023/05/10 04:36:21;;;;;;;1.15;0.90;;;23.70;48.90;;;;;;5041889;28;20025;-67
2023/05/10 04:38:47;;;;;;;1.00;0.73;;;23.70;48.90;;;;;;5039479;28;20029;-67
2023/05/10 04:41:12;;;;;;;1.67;1.00;;;23.70;48.90;;;;;;5041258;28;20025;-67
2023/05/10 04:43:38;;;;;;;1.42;0.88;;;23.70;48.90;;;;;;5039969;28;20033;-67
2023/05/10 04:46:04;;;;;;;0.70;0.70;;;23.70;48.90;;;;;;5038694;28;20037;-67
2023/05/10 04:48:30;;;;;;;1.10;0.80;;;23.70;49.00;;;;;;5039206;28;20112;-67
2023/05/10 04:50:56;;;;;;;1.83;0.90;;;23.70;49.00;;;;;;5037988;28;20561;-67
2023/05/10 04:53:22;;;;;;;1.42;0.82;;;23.70;49.00;;;;;;5039691;28;20121;-67
2023/05/10 04:55:48;;;;;;;0.73;0.73;;;23.70;49.00;;;;;;5037220;28;20032;-66
2023/05/10 04:58:14;;;;;;;1.30;0.80;;;23.70;49.00;;;;;;5039599;28;20025;-67
2023/05/10 05:00:39;;;;;;;1.08;0.80;;;23.70;49.00;;;;;;5039755;28;20021;-66
2023/05/10 05:03:06;;;;;;;1.38;0.80;;;23.70;49.00;;;;;;5038674;28;20075;-66
2023/05/10 05:05:31;;;;;;;1.17;0.75;;;23.70;49.00;;;;;;5041817;28;20086;-66
2023/05/10 05:07:57;;;;;;;1.30;0.80;;;23.60;49.00;;;;;;5039796;28;20042;-66
2023/05/10 05:10:22;;;;;;;1.27;0.82;;;23.60;49.00;;;;;;5036180;28;20029;-66
2023/05/10 05:12:48;;;;;;;1.30;0.75;;;23.60;49.00;;;;;;5037084;28;20025;-66
2023/05/10 05:15:15;;;;;;;0.85;0.80;;;23.60;49.00;;;;;;5040168;28;20040;-66
2023/05/10 05:17:40;;;;;;;1.10;0.80;;;23.60;49.00;;;;;;5038667;28;20030;-66
2023/05/10 05:20:07;;;;;;;1.65;0.90;;;23.60;49.10;;;;;;5042864;28;20389;-66
2023/05/10 05:22:32;;;;;;;1.02;0.80;;;23.60;49.00;;;;;;5038923;28;20112;-66
2023/05/10 05:24:58;;;;;;;1.15;0.70;;;23.60;49.10;;;;;;5037107;28;20473;-66
2023/05/10 05:27:26;;;;;;;1.05;0.70;;;23.60;49.10;;;;;;5039325;28;20033;-66
2023/05/10 05:29:55;;;;;;;0.70;0.70;;;23.60;49.10;;;;;;5054865;28;20037;-66
2023/05/10 05:32:22;;;;;;;1.90;0.70;;;23.60;49.10;;;;;;5039844;28;20032;-65
2023/05/10 05:34:47;;;;;;;1.20;1.00;;;23.60;49.20;;;;;;5039676;28;20056;-65
2023/05/10 05:37:18;;;;;;;0.80;0.77;;;23.60;49.20;;;;;;5040872;28;20114;-65
2023/05/10 05:39:44;;;;;;;1.27;0.77;;;23.60;49.10;;;;;;5036524;28;20381;-65
2023/05/10 05:42:11;;;;;;;1.23;0.80;;;23.60;49.10;;;;;;5039360;28;20527;-65
2023/05/10 05:44:37;;;;;;;1.13;0.70;;;23.60;49.20;;;;;;5039011;28;20048;-65
2023/05/10 05:47:03;;;;;;;1.30;0.70;;;23.60;49.10;;;;;;5040497;28;20029;-66
2023/05/10 05:49:29;;;;;;;1.02;0.82;;;23.60;49.10;;;;;;5039448;28;20103;-65
2023/05/10 05:51:59;;;;;;;1.65;0.70;;;23.50;49.10;;;;;;5040099;28;20138;-65
2023/05/10 05:54:25;;;;;;;0.88;0.70;;;23.60;49.10;;;;;;5036820;28;20024;-65
2023/05/10 05:56:50;;;;;;;1.55;0.80;;;23.60;49.10;;;;;;5039853;28;20029;-66
2023/05/10 05:59:16;;;;;;;1.00;0.60;;;23.50;49.10;;;;;;5037883;28;20498;-66
2023/05/10 06:01:42;;;;;;;0.75;0.70;;;23.50;49.10;;;;;;5039726;28;20066;-65
2023/05/10 06:04:08;;;;;;;0.85;0.70;;;23.50;49.10;;;;;;5037105;28;20033;-65
2023/05/10 06:06:33;;;;;;;0.85;0.60;;;23.60;49.10;;;;;;5035882;28;20029;-65
2023/05/10 06:08:59;;;;;;;1.20;0.70;;;23.50;49.10;;;;;;5036495;28;20370;-65
2023/05/10 06:11:25;;;;;;;0.70;0.70;;;23.50;49.10;;;;;;5036359;28;20025;-66
2023/05/10 06:13:51;;;;;;;0.98;0.70;;;23.50;49.10;;;;;;5038682;28;20787;-65
2023/05/10 06:16:17;;;;;;;1.88;0.77;;;23.50;49.10;;;;;;5039506;28;20025;-66
2023/05/10 06:18:43;;;;;;;0.82;0.70;;;23.50;49.10;;;;;;5037362;28;20026;-65
2023/05/10 06:21:09;;;;;;;0.88;0.70;;;23.50;49.10;;;;;;5039258;28;20164;-65
2023/05/10 06:23:35;;;;;;;1.10;0.60;;;23.50;49.10;;;;;;5040553;28;20028;-66
2023/05/10 06:26:01;;;;;;;1.27;0.70;;;23.50;49.40;;;;;;5037018;28;20766;-65
2023/05/10 06:28:26;;;;;;;0.93;0.63;;;23.50;49.30;;;;;;5036645;28;20107;-65
2023/05/10 06:30:52;;;;;;;0.65;0.63;;;23.50;49.10;;;;;;5038271;28;20044;-65
2023/05/10 06:33:17;;;;;;;0.90;0.63;;;23.50;49.10;;;;;;5037220;28;20084;-66
2023/05/10 06:35:43;;;;;;;0.80;0.60;;;23.50;49.10;;;;;;5039344;28;20029;-65
2023/05/10 06:38:09;;;;;;;1.17;0.80;;;23.50;49.10;;;;;;5040376;28;20048;-65
2023/05/10 06:40:35;;;;;;;0.80;0.63;;;23.50;49.10;;;;;;5036437;28;20507;-65
2023/05/10 06:43:01;;;;;;;1.27;0.70;;;23.50;49.20;;;;;;5036948;28;20116;-65
2023/05/10 06:45:26;;;;;;;0.70;0.60;;;23.50;49.20;;;;;;5038667;28;20513;-65
2023/05/10 06:47:52;;;;;;;1.40;0.80;;;23.50;49.10;;;;;;5036982;28;20116;-65
2023/05/10 06:50:18;;;;;;;1.08;0.70;;;23.50;49.10;;;;;;5037273;28;20025;-65
2023/05/10 06:52:43;;;;;;;1.55;0.70;;;23.50;49.10;;;;;;5037579;28;20017;-66
2023/05/10 06:55:09;;;;;;;1.10;0.70;;;23.50;49.20;;;;;;5036235;28;20041;-65
2023/05/10 06:57:35;;;;;;;1.00;0.70;;;23.50;49.20;;;;;;5035513;28;20445;-65
2023/05/10 07:00:03;;;;;;;0.68;0.65;;;23.50;49.10;;;;;;5037729;28;20450;-65
2023/05/10 07:02:29;;;;;;;1.23;0.70;;;23.50;49.20;;;;;;5037184;28;20120;-65
2023/05/10 07:04:55;;;;;;;0.95;0.68;;;23.50;49.20;;;;;;5037290;28;20466;-65
2023/05/10 07:07:20;;;;;;;1.27;0.70;;;23.40;49.10;;;;;;5037780;28;20037;-65
2023/05/10 07:09:46;;;;;;;0.85;0.60;;;23.40;49.10;;;;;;5035038;28;20558;-65
2023/05/10 07:12:12;;;;;;;1.38;0.80;;;23.40;49.10;;;;;;5038070;28;20025;-65
2023/05/10 07:14:37;;;;;;;1.02;0.70;;;23.40;49.10;;;;;;5033672;28;20389;-65
2023/05/10 07:17:03;;;;;;;1.08;0.70;;;23.40;49.10;;;;;;5038696;28;20024;-65
2023/05/10 07:19:29;;;;;;;1.25;0.60;;;23.40;49.10;;;;;;5033851;28;20481;-65
2023/05/10 07:21:55;;;;;;;0.95;0.70;;;23.40;49.10;;;;;;5035036;28;20040;-65
2023/05/10 07:24:21;;;;;;;0.60;0.60;;;23.40;49.10;;;;;;5035061;28;20444;-65
2023/05/10 07:26:46;;;;;;;0.98;0.65;;;23.40;49.10;;;;;;5036236;28;20321;-65
2023/05/10 07:29:12;;;;;;;0.73;0.60;;;23.40;49.10;;;;;;5037507;28;20083;-65
2023/05/10 07:31:38;;;;;;;1.10;0.60;;;23.40;49.20;;;;;;5038951;28;20155;-65
2023/05/10 07:34:03;;;;;;;0.75;0.63;;;23.40;49.10;;;;;;5038125;28;20166;-65
2023/05/10 07:36:29;;;;;;;0.98;0.60;;;23.40;49.10;;;;;;5035255;28;20030;-65
2023/05/10 07:38:55;;;;;;;1.02;0.70;;;23.40;49.10;;;;;;5037572;28;20049;-65
2023/05/10 07:41:22;;;;;;;0.73;0.60;;;23.40;49.30;;;;;;5037646;28;20112;-65
2023/05/10 07:43:47;;;;;;;0.88;0.60;;;23.40;49.20;;;;;;5034877;28;20456;-65
2023/05/10 07:46:13;;;;;;;0.60;0.60;;;23.40;49.20;;;;;;5037161;28;20029;-65
2023/05/10 07:48:38;;;;;;;0.80;0.60;;;23.40;49.20;;;;;;5036088;28;20476;-65
2023/05/10 07:51:06;;;;;;;0.93;0.52;;;23.40;49.20;;;;;;5036155;28;20068;-65
2023/05/10 07:53:31;;;;;;;0.52;0.52;;;23.40;49.20;;;;;;5036205;28;20133;-65
2023/05/10 07:55:58;;;;;;;0.40;0.40;;;23.40;49.20;;;;;;5037771;28;20100;-65
2023/05/10 07:58:25;;;;;;;1.20;0.90;;;23.40;49.10;;;;;;5038657;28;20525;-65
2023/05/10 08:00:50;;;;;;;0.77;0.65;;;23.40;49.20;;;;;;5037399;28;20120;-65
2023/05/10 08:03:16;;;;;;;0.73;0.60;;;23.40;49.10;;;;;;5039127;28;20104;-65
2023/05/10 08:05:42;;;;;;;0.80;0.65;;;23.40;49.20;;;;;;5036485;28;20029;-65
2023/05/10 08:08:07;;;;;;;0.80;0.60;;;23.40;49.20;;;;;;5040574;28;20029;-65
2023/05/10 08:10:33;;;;;;;0.57;0.57;;;23.40;49.20;;;;;;5038492;28;20045;-65
2023/05/10 08:12:58;;;;;;;0.77;0.60;;;23.40;49.20;;;;;;5040596;28;20409;-66
2023/05/10 08:15:25;;;;;;;0.80;0.70;;;23.40;49.20;;;;;;5041597;28;20029;-65
2023/05/10 08:17:51;;;;;;;1.05;0.73;;;23.40;49.20;;;;;;5040691;28;20025;-65
2023/05/10 08:20:18;;;;;;;0.82;0.60;;;23.30;49.10;;;;;;5040669;28;20033;-65
2023/05/10 08:22:45;;;;;;;0.90;0.70;;;23.40;49.20;;;;;;5041073;28;20032;-65
2023/05/10 08:25:11;;;;;;;0.50;0.50;;;23.30;49.10;;;;;;5039698;28;20405;-66
2023/05/10 08:27:36;;;;;;;0.85;0.70;;;23.30;49.20;;;;;;5041474;28;20095;-65
2023/05/10 08:30:02;;;;;;;1.05;0.60;;;23.30;49.10;;;;;;5041274;28;20049;-65
2023/05/10 08:32:28;;;;;;;0.63;0.55;;;23.30;49.20;;;;;;5040153;28;20022;-65
2023/05/10 08:34:54;;;;;;;0.85;0.55;;;23.30;49.20;;;;;;5038497;28;20123;-65
2023/05/10 08:37:20;;;;;;;0.50;0.50;;;23.30;49.20;;;;;;5039697;28;20024;-65
2023/05/10 08:39:47;;;;;;;0.55;0.55;;;23.30;49.10;;;;;;5039262;28;20389;-65
2023/05/10 08:42:19;;;;;;;0.50;0.50;;;23.30;49.10;;;;;;5038604;28;20017;-65
2023/05/10 08:44:48;;;;;;;0.63;0.60;;;23.30;49.20;;;;;;5038821;28;20898;-65
2023/05/10 08:47:16;;;;;;;0.90;0.55;;;23.30;49.20;;;;;;5040636;28;20068;-65
2023/05/10 08:49:43;;;;;;;0.63;0.63;;;23.30;49.20;;;;;;5038830;28;20124;-65
2023/05/10 08:52:12;;;;;;;0.57;0.52;;;23.30;49.20;;;;;;5039368;28;20040;-65
2023/05/10 08:54:38;;;;;;;0.50;0.50;;;23.30;49.20;;;;;;5037384;28;20034;-65
2023/05/10 08:57:03;;;;;;;0.45;0.45;;;23.30;49.20;;;;;;5037069;28;20037;-65
2023/05/10 08:59:29;;;;;;;0.77;0.63;;;23.30;49.20;;;;;;5039757;28;20025;-65
2023/05/10 09:01:59;;;;;;;1.10;0.50;;;23.30;49.20;;;;;;5039292;28;20500;-65
2023/05/10 09:04:25;;;;;;;;;;;23.30;49.20;;;;;;5041771;28;20496;-65
2023/05/10 09:06:50;;;;;;;0.90;0.60;;;23.30;49.20;;;;;;5040988;28;19913;-65
2023/05/10 09:09:17;;;;;;;0.43;0.40;;;23.30;49.20;;;;;;5039248;28;20465;-65
2023/05/10 09:11:44;;;;;;;0.60;0.50;;;23.30;49.20;;;;;;5039738;28;20026;-65
2023/05/10 09:14:12;;;;;;;1.17;0.65;;;23.30;49.20;;;;;;5040825;28;20052;-65
2023/05/10 09:16:37;;;;;;;0.80;0.60;;;23.30;49.20;;;;;;5041075;28;20485;-65
2023/05/10 09:19:03;;;;;;;0.57;0.50;;;23.30;49.20;;;;;;5041180;28;20033;-65
2023/05/10 09:21:30;;;;;;;0.90;0.70;;;23.30;49.20;;;;;;5038130;28;20155;-65
2023/05/10 09:23:56;;;;;;;0.82;0.70;;;23.20;49.20;;;;;;5038493;28;20029;-65
2023/05/10 09:26:25;;;;;;;1.15;0.57;;;23.20;49.20;;;;;;5038856;28;20028;-65
2023/05/10 09:28:58;;;;;;;0.40;0.40;;;23.30;49.30;;;;;;5040832;28;20388;-66
2023/05/10 09:31:42;;;;;;;0.80;0.52;;;23.30;49.30;;;;;;5038595;28;20033;-65
2023/05/10 09:34:08;;;;;;;0.90;0.55;;;23.20;49.20;;;;;;5037767;28;20047;-65
2023/05/10 09:36:33;;;;;;;0.88;0.57;;;23.20;49.20;;;;;;5039812;28;20489;-65
2023/05/10 09:38:59;;;;;;;0.95;0.57;;;23.30;49.20;;;;;;5039578;28;20060;-65
2023/05/10 09:41:25;;;;;;;0.50;0.50;;;23.30;49.20;;;;;;5038382;28;20143;-65
2023/05/10 09:43:56;;;;;;;0.63;0.50;;;23.30;49.20;;;;;;5040208;28;20485;-65
2023/05/10 09:46:22;;;;;;;0.50;0.50;;;23.20;49.20;;;;;;5040121;28;20175;-65
2023/05/10 09:48:48;;;;;;;0.60;0.50;;;23.20;49.20;;;;;;5037760;28;20036;-65
2023/05/10 09:51:24;;;;;;;1.25;0.65;;;23.20;49.20;;;;;;5040855;28;20025;-65
2023/05/10 09:54:12;;;;;;;0.52;0.50;;;23.20;49.20;;;;;;5040149;28;20477;-66
2023/05/10 09:56:40;;;;;;;0.60;0.50;;;23.20;49.20;;;;;;5038141;28;20084;-65
2023/05/10 09:59:08;;;;;;;0.55;0.50;;;23.30;49.30;;;;;;5039317;28;20021;-65
2023/05/10 10:01:34;;;;;;;0.60;0.60;;;23.20;49.20;;;;;;5038435;28;20048;-65
2023/05/10 10:04:03;;;;;;;0.75;0.60;;;23.20;49.20;;;;;;5037983;28;20341;-65
2023/05/10 10:06:34;;;;;;;0.50;0.50;;;23.20;49.20;;;;;;5040409;28;20075;-65
2023/05/10 10:09:00;;;;;;;0.80;0.60;;;23.20;49.30;;;;;;5037157;28;20040;-65
2023/05/10 10:11:25;;;;;;;0.50;0.50;;;23.20;49.20;;;;;;5035997;28;20101;-65
2023/05/10 10:13:51;;;;;;;0.50;0.45;;;23.20;49.20;;;;;;5039417;28;20025;-65
2023/05/10 10:16:16;;;;;;;0.50;0.50;;;23.20;49.30;;;;;;5040549;28;20458;-65
2023/05/10 10:18:43;;;;;;;0.50;0.50;;;23.20;49.20;;;;;;5038260;28;20029;-65
2023/05/10 10:21:09;;;;;;;0.63;0.50;;;23.20;49.20;;;;;;5037562;28;20548;-65
2023/05/10 10:23:37;;;;;;;0.73;0.65;;;23.20;49.20;;;;;;5039353;28;20037;-65
2023/05/10 10:26:04;;;;;;;0.40;0.40;;;23.20;49.20;;;;;;5037757;28;20021;-65
2023/05/10 10:28:44;;;;;;;0.85;0.50;;;23.20;49.30;;;;;;5037458;28;20025;-65
2023/05/10 10:31:35;;;;;;;0.70;0.60;;;23.20;49.30;;;;;;5036438;28;20032;-66
2023/05/10 10:34:10;;;;;;;0.63;0.50;;;23.20;49.20;;;;;;5037702;28;20128;-66
2023/05/10 10:36:45;;;;;;;0.50;0.50;;;23.20;49.20;;;;;;5039136;28;20040;-66
2023/05/10 10:39:12;;;;;;;0.57;0.50;;;23.20;49.20;;;;;;5038251;28;20021;-66
2023/05/10 10:41:42;;;;;;;0.60;0.60;;;23.20;49.20;;;;;;5037304;28;20461;-66
2023/05/10 10:44:26;;;;;;;0.65;0.40;;;23.20;49.20;;;;;;5069883;28;20075;-66
2023/05/10 10:47:23;;;;;;;0.45;0.45;;;23.20;49.20;;;;;;5038552;28;20029;-67
2023/05/10 10:49:51;;;;;;;0.50;0.50;;;23.20;49.20;;;;;;5044623;28;20044;-65
2023/05/10 10:52:31;;;;;;;0.50;0.50;;;23.20;49.20;;;;;;5037735;28;20037;-65
2023/05/10 10:55:03;;;;;;;;;;;23.20;49.30;;;;;;5038521;28;20025;-66
2023/05/10 10:57:33;;;;;;;0.50;0.50;;;23.20;49.30;;;;;;5035722;28;19980;-65
2023/05/10 11:00:20;;;;;;;0.57;0.50;;;23.20;49.20;;;;;;5040527;28;20056;-66
2023/05/10 11:02:53;;;;;;;0.73;0.52;;;23.20;49.30;;;;;;5038913;28;20025;-66
2023/05/10 11:05:32;;;;;;;0.40;0.40;;;23.20;49.30;;;;;;5037222;28;20151;-66
2023/05/10 11:08:00;;;;;;;0.50;0.50;;;23.20;49.30;;;;;;5035794;28;20066;-66
2023/05/10 11:10:27;;;;;;;0.50;0.47;;;23.20;49.30;;;;;;5034841;28;20052;-66
2023/05/10 11:13:00;;;;;;;0.60;0.40;;;23.20;49.30;;;;;;5033623;28;20024;-66
2023/05/10 11:15:34;;;;;;;0.30;0.30;;;23.20;49.20;;;;;;5038080;28;20022;-65
2023/05/10 11:18:17;;;;;;;0.52;0.40;;;23.20;49.30;;;;;;5037644;28;20030;-65
2023/05/10 11:20:43;;;;;;;0.30;0.30;;;23.20;49.30;;;;;;5038459;28;20868;-66
2023/05/10 11:23:15;;;;;;;0.38;0.30;;;23.20;49.30;;;;;;5038302;28;20032;-66
2023/05/10 11:25:43;;;;;;;0.77;0.60;;;23.20;49.30;;;;;;5037568;28;20025;-66
2023/05/10 11:28:09;;;;;;;0.40;0.40;;;23.20;49.40;;;;;;5034466;28;20039;-65
2023/05/10 11:30:35;;;;;;;0.60;0.50;;;23.20;49.30;;;;;;5035709;28;20083;-66
2023/05/10 11:33:01;;;;;;;0.70;0.50;;;23.20;49.30;;;;;;5035672;28;20022;-65
2023/05/10 11:35:27;;;;;;;0.60;0.50;;;23.20;49.30;;;;;;5037827;28;20038;-65
2023/05/10 11:37:53;;;;;;;0.70;0.50;;;23.20;49.30;;;;;;5037089;28;20477;-66
2023/05/10 11:40:21;;;;;;;1.08;0.40;;;23.20;49.40;;;;;;5040417;28;20033;-66
2023/05/10 11:42:46;;;;;;;0.85;0.50;;;23.20;49.40;;;;;;5041721;28;20097;-66
2023/05/10 11:45:12;;;;;;;1.17;0.50;;;23.20;49.40;;;;;;5040781;28;20033;-66
2023/05/10 11:47:39;;;;;;;0.40;0.40;;;23.20;49.40;;;;;;5038853;28;20018;-68
2023/05/10 11:50:05;;;;;;;0.47;0.43;;;23.20;49.40;;;;;;5041849;28;20037;-67
2023/05/10 11:52:37;;;;;;;0.77;0.40;;;23.20;49.40;;;;;;5036344;28;20045;-67
2023/05/10 11:55:02;;;;;;;1.75;0.47;;;23.20;49.40;;;;;;5042115;28;20342;-66
2023/05/10 11:57:28;;;;;;;0.70;0.50;;;23.20;49.40;;;;;;5041142;28;20035;-67
2023/05/10 11:59:55;;;;;;;0.60;0.40;;;23.20;49.40;;;;;;5038234;28;20025;-67
2023/05/10 12:02:20;;;;;;;0.50;0.50;;;23.20;49.40;;;;;;5039269;28;20377;-67
2023/05/10 12:04:46;;;;;;;0.50;0.40;;;23.20;49.40;;;;;;5039337;28;20021;-67
2023/05/10 12:07:12;;;;;;;0.68;0.47;;;23.20;49.40;;;;;;5040543;28;20044;-67
2023/05/10 12:10:02;;;;;;;0.63;0.43;;;23.20;49.40;;;;;;5040687;28;20441;-67
2023/05/10 12:12:34;;;;;;;2.10;0.50;;;23.20;49.40;;;;;;5041056;28;20036;-67
2023/05/10 12:15:03;;;;;;;0.40;0.40;;;23.20;49.40;;;;;;5042504;28;20025;-67
2023/05/10 12:17:29;;;;;;;1.80;0.50;;;23.20;49.40;;;;;;5040432;28;20109;-67
2023/05/10 12:20:12;;;;;;;0.47;0.45;;;23.20;49.40;;;;;;5043301;28;20550;-66
2023/05/10 12:22:37;;;;;;;0.40;0.40;;;23.20;49.50;;;;;;5039403;28;20025;-67
2023/05/10 12:25:03;;;;;;;0.50;0.40;;;23.20;49.50;;;;;;5039956;28;20025;-66
2023/05/10 12:27:32;;;;;;;0.50;0.40;;;23.20;49.50;;;;;;5038690;28;20519;-67
2023/05/10 12:29:59;;;;;;;0.87;0.50;;;23.20;49.60;;;;;;5040760;28;20105;-67
2023/05/10 12:32:41;;;;;;;0.60;0.40;;;23.20;49.60;;;;;;5038333;28;20492;-66
2023/05/10 12:35:07;;;;;;;0.40;0.40;;;23.20;49.60;;;;;;5040394;28;20177;-67
2023/05/10 12:37:38;;;;;;;1.40;0.55;;;23.20;49.60;;;;;;5041290;28;20362;-66
2023/05/10 12:40:08;;;;;;;1.05;0.45;;;23.20;49.70;;;;;;5038512;28;20028;-66
2023/05/10 12:42:35;;;;;;;0.73;0.52;;;23.20;49.70;;;;;;5039775;28;20036;-66
2023/05/10 12:45:01;;;;;;;0.60;0.50;;;23.10;49.60;;;;;;5040629;28;20102;-67
2023/05/10 12:47:27;;;;;;;0.57;0.50;;;23.20;49.70;;;;;;5038515;28;20595;-66
2023/05/10 12:49:53;;;;;;;0.63;0.50;;;23.20;49.70;;;;;;5040001;28;20035;-67
2023/05/10 12:52:18;;;;;;;1.10;0.47;;;23.20;49.80;;;;;;5040969;28;20566;-66